createdAt,value
2018-07-24T00:01:53.913Z,11.30
2018-07-24T00:04:22.015Z,11.12
2018-07-24T00:06:50.093Z,11.00
2018-07-24T00:09:18.909Z,11.60
2018-07-24T00:11:47.598Z,11.40
2018-07-24T00:14:15.993Z,10.50
2018-07-24T00:16:44.292Z,10.58
2018-07-24T00:19:12.715Z,11.27
2018-07-24T00:21:40.810Z,10.82
2018-07-24T00:24:08.808Z,11.95
2018-07-24T00:26:37.298Z,11.00
2018-07-24T00:29:05.786Z,10.80
2018-07-24T00:31:34.116Z,10.75
2018-07-24T00:34:08.551Z,11.38
2018-07-24T00:36:39.092Z,11.10
2018-07-24T00:39:08.012Z,11.80
2018-07-24T00:41:36.638Z,10.93
2018-07-24T00:44:05.391Z,11.28
2018-07-24T00:46:33.583Z,12.03
2018-07-24T00:49:02.114Z,11.30
2018-07-24T00:51:30.450Z,11.50
2018-07-24T00:54:02.382Z,11.55
2018-07-24T00:56:30.702Z,12.63
2018-07-24T00:58:59.877Z,11.73
2018-07-24T01:01:29.006Z,12.30
2018-07-24T01:03:59.144Z,12.00
2018-07-24T01:06:27.342Z,11.70
2018-07-24T01:08:55.632Z,12.15
2018-07-24T01:11:23.545Z,11.88
2018-07-24T01:13:51.946Z,12.80
2018-07-24T01:16:20.442Z,12.60
2018-07-24T01:18:48.825Z,12.00
2018-07-24T01:21:17.236Z,12.50
2018-07-24T01:23:45.413Z,12.78
2018-07-24T01:26:13.716Z,12.10
2018-07-24T01:28:42.036Z,12.82
2018-07-24T01:31:10.411Z,12.82
2018-07-24T01:33:38.702Z,12.70
2018-07-24T01:36:07.116Z,13.05
2018-07-24T01:38:35.579Z,12.75
2018-07-24T01:41:10.063Z,12.55
2018-07-24T01:43:38.372Z,13.15
2018-07-24T01:46:06.863Z,12.43
2018-07-24T01:48:35.146Z,12.60
2018-07-24T01:51:05.265Z,13.53
2018-07-24T01:53:33.698Z,12.85
2018-07-24T01:56:01.893Z,12.60
2018-07-24T01:58:30.267Z,12.20
2018-07-24T02:01:02.872Z,12.65
2018-07-24T02:03:31.730Z,12.43
2018-07-24T02:06:00.312Z,12.90
2018-07-24T02:08:28.668Z,13.00
2018-07-24T02:10:57.056Z,12.65
2018-07-24T02:13:25.268Z,12.60
2018-07-24T02:15:53.595Z,12.93
2018-07-24T02:18:21.417Z,12.60
2018-07-24T02:20:53.664Z,13.30
2018-07-24T02:23:22.062Z,13.45
2018-07-24T02:25:50.342Z,12.95
2018-07-24T02:28:20.601Z,13.05
2018-07-24T02:30:48.882Z,13.28
2018-07-24T02:33:17.162Z,13.25
2018-07-24T02:35:45.418Z,13.40
2018-07-24T02:38:13.567Z,12.70
2018-07-24T02:40:47.509Z,13.28
2018-07-24T02:43:15.907Z,13.10
2018-07-24T02:45:44.208Z,13.65
2018-07-24T02:48:12.582Z,13.40
2018-07-24T02:50:48.773Z,13.08
2018-07-24T02:53:17.189Z,13.85
2018-07-24T02:55:45.678Z,13.53
2018-07-24T02:58:14.163Z,13.70
2018-07-24T03:00:42.332Z,14.10
2018-07-24T03:03:10.475Z,13.20
2018-07-24T03:05:38.770Z,13.80
2018-07-24T03:08:07.152Z,14.65
2018-07-24T03:10:35.443Z,13.80
2018-07-24T03:13:03.718Z,14.50
2018-07-24T03:15:32.144Z,14.10
2018-07-24T03:18:00.566Z,13.62
2018-07-24T03:20:28.756Z,14.40
2018-07-24T03:22:57.060Z,14.98
2018-07-24T03:25:31.242Z,14.43
2018-07-24T03:27:59.679Z,14.05
2018-07-24T03:30:27.866Z,14.55
2018-07-24T03:32:55.867Z,13.85
2018-07-24T03:35:23.948Z,14.70
2018-07-24T03:37:52.554Z,14.10
2018-07-24T03:40:21.065Z,14.30
2018-07-24T03:42:49.057Z,14.93
2018-07-24T03:45:17.368Z,15.95
2018-07-24T03:47:45.645Z,14.00
2018-07-24T03:50:13.740Z,13.90
2018-07-24T03:52:41.929Z,14.15
2018-07-24T03:55:10.046Z,14.28
2018-07-24T03:57:38.624Z,14.40
2018-07-24T04:00:07.724Z,13.80
2018-07-24T04:02:38.730Z,14.15
2018-07-24T04:05:07.110Z,14.10
2018-07-24T04:07:36.328Z,13.48
2018-07-24T04:10:04.522Z,13.35
2018-07-24T04:12:37.151Z,13.40
2018-07-24T04:15:06.304Z,13.95
2018-07-24T04:17:35.084Z,13.90
2018-07-24T04:20:03.428Z,13.85
2018-07-24T04:22:31.825Z,13.30
2018-07-24T04:24:59.784Z,12.90
2018-07-24T04:27:27.992Z,12.57
2018-07-24T04:29:56.479Z,12.78
2018-07-24T04:32:24.694Z,11.95
2018-07-24T04:34:52.797Z,11.63
2018-07-24T04:37:21.831Z,11.08
2018-07-24T04:39:50.539Z,12.10
2018-07-24T04:42:19.005Z,10.30
2018-07-24T04:44:47.131Z,10.40
2018-07-24T04:47:15.524Z,10.15
2018-07-24T04:49:43.607Z,10.03
2018-07-24T04:52:21.815Z,11.30
2018-07-24T04:54:50.719Z,10.30
2018-07-24T04:57:19.259Z,10.15
2018-07-24T04:59:47.530Z,10.48
2018-07-24T05:02:19.516Z,10.30
2018-07-24T05:04:47.940Z,9.60
2018-07-24T05:07:16.439Z,10.13
2018-07-24T05:09:44.949Z,10.80
2018-07-24T05:12:13.302Z,11.00
2018-07-24T05:14:41.612Z,10.95
2018-07-24T05:17:10.126Z,11.40
2018-07-24T05:19:41.801Z,11.18
2018-07-24T05:22:09.803Z,10.08
2018-07-24T05:24:38.105Z,11.40
2018-07-24T05:27:10.161Z,10.40
2018-07-24T05:29:38.457Z,9.85
2018-07-24T05:32:07.666Z,10.20
2018-07-24T05:34:35.839Z,10.73
2018-07-24T05:37:10.913Z,10.35
2018-07-24T05:39:38.803Z,10.47
2018-07-24T05:42:07.713Z,10.50
2018-07-24T05:44:35.816Z,11.70
2018-07-24T05:47:04.021Z,9.98
2018-07-24T05:49:32.328Z,10.03
2018-07-24T05:52:00.604Z,9.10
2018-07-24T05:54:29.941Z,8.88
2018-07-24T05:56:58.409Z,9.18
2018-07-24T05:59:26.836Z,9.05
2018-07-24T06:01:55.458Z,8.80
2018-07-24T06:04:24.558Z,8.55
2018-07-24T06:06:52.962Z,8.70
2018-07-24T06:09:21.238Z,8.48
2018-07-24T06:11:49.019Z,8.98
2018-07-24T06:14:17.421Z,8.98
2018-07-24T06:16:46.048Z,8.90
2018-07-24T06:19:14.650Z,8.48
2018-07-24T06:21:43.105Z,8.75
2018-07-24T06:24:11.329Z,9.20
2018-07-24T06:26:39.854Z,8.73
2018-07-24T06:29:08.288Z,9.05
2018-07-24T06:31:36.651Z,9.00
2018-07-24T06:34:05.167Z,8.90
2018-07-24T06:36:33.551Z,9.18
2018-07-24T06:39:01.519Z,8.40
2018-07-24T06:41:30.132Z,8.33
2018-07-24T06:44:02.122Z,7.58
2018-07-24T06:46:30.318Z,7.80
2018-07-24T06:48:58.602Z,7.90
2018-07-24T06:51:26.616Z,7.47
2018-07-24T06:53:55.107Z,7.35
2018-07-24T06:56:23.582Z,6.97
2018-07-24T06:58:52.109Z,7.27
2018-07-24T07:01:20.548Z,7.22
2018-07-24T07:03:48.801Z,7.72
2018-07-24T07:06:17.415Z,6.55
2018-07-24T07:08:45.831Z,6.50
2018-07-24T07:11:17.893Z,6.47
2018-07-24T07:13:45.969Z,5.80
2018-07-24T07:16:14.101Z,5.60
2018-07-24T07:18:42.443Z,5.92
2018-07-24T07:21:10.963Z,5.75
2018-07-24T07:23:39.380Z,5.50
2018-07-24T07:26:07.692Z,5.70
2018-07-24T07:28:36.070Z,5.20
2018-07-24T07:31:04.182Z,5.17
2018-07-24T07:33:32.471Z,5.20
2018-07-24T07:36:00.766Z,5.20
2018-07-24T07:38:29.166Z,4.80
2018-07-24T07:40:57.670Z,5.10
2018-07-24T07:43:25.971Z,4.97
2018-07-24T07:45:54.287Z,5.10
2018-07-24T07:48:22.765Z,5.40
2018-07-24T07:50:51.196Z,4.40
2018-07-24T07:53:19.859Z,4.90
2018-07-24T07:55:47.945Z,5.37
2018-07-24T07:58:15.906Z,4.80
2018-07-24T08:00:43.831Z,4.40
2018-07-24T08:03:11.598Z,5.00
2018-07-24T08:05:39.577Z,4.78
2018-07-24T08:08:07.503Z,4.30
2018-07-24T08:10:35.234Z,4.30
2018-07-24T08:13:03.333Z,4.97
2018-07-24T08:15:31.285Z,5.20
2018-07-24T08:17:59.624Z,4.22
2018-07-24T08:20:28.031Z,3.50
2018-07-24T08:22:57.612Z,4.55
2018-07-24T08:25:25.985Z,3.60
2018-07-24T08:27:54.330Z,3.70
2018-07-24T08:30:24.758Z,3.98
2018-07-24T08:32:53.041Z,3.80
2018-07-24T08:35:21.986Z,4.00
2018-07-24T08:37:50.865Z,3.60
2018-07-24T08:40:19.784Z,3.70
2018-07-24T08:42:48.483Z,4.60
2018-07-24T08:45:17.267Z,4.10
2018-07-24T08:47:45.606Z,4.45
2018-07-24T08:50:14.213Z,4.93
2018-07-24T08:52:43.267Z,4.33
2018-07-24T08:55:11.980Z,4.47
2018-07-24T08:57:40.187Z,5.00
2018-07-24T09:00:09.095Z,5.00
2018-07-24T09:02:37.211Z,4.70
2018-07-24T09:05:05.417Z,4.83
2018-07-24T09:07:33.685Z,4.67
2018-07-24T09:10:02.308Z,4.75
2018-07-24T09:12:30.515Z,4.50
2018-07-24T09:14:58.771Z,5.05
2018-07-24T09:17:27.301Z,4.72
2018-07-24T09:19:55.603Z,4.50
2018-07-24T09:22:23.590Z,4.60
2018-07-24T09:24:52.314Z,4.30
2018-07-24T09:27:20.555Z,4.37
2018-07-24T09:29:49.415Z,4.20
2018-07-24T09:32:17.716Z,4.40
2018-07-24T09:34:45.990Z,4.80
2018-07-24T09:37:13.984Z,4.50
2018-07-24T09:39:42.111Z,4.92
2018-07-24T09:42:10.276Z,4.50
2018-07-24T09:44:38.471Z,4.70
2018-07-24T09:47:06.734Z,5.10
2018-07-24T09:49:35.117Z,4.55
2018-07-24T09:52:03.580Z,4.90
2018-07-24T09:54:31.856Z,4.80
2018-07-24T09:57:00.061Z,4.28
2018-07-24T09:59:29.025Z,4.60
2018-07-24T10:01:57.383Z,4.22
2018-07-24T10:04:25.639Z,4.73
2018-07-24T10:06:54.255Z,4.37
2018-07-24T10:09:23.174Z,4.67
2018-07-24T10:11:51.376Z,4.30
2018-07-24T10:14:19.791Z,4.33
2018-07-24T10:16:48.238Z,4.10
2018-07-24T10:19:17.302Z,4.12
2018-07-24T10:21:45.682Z,4.30
2018-07-24T10:24:14.184Z,4.03
2018-07-24T10:26:42.390Z,4.50
2018-07-24T10:29:11.157Z,4.35
2018-07-24T10:31:39.712Z,4.55
2018-07-24T10:34:07.942Z,4.50
2018-07-24T10:36:36.302Z,4.40
2018-07-24T10:39:08.386Z,4.30
2018-07-24T10:41:36.874Z,4.00
2018-07-24T10:44:05.117Z,4.40
2018-07-24T10:46:33.376Z,4.17
2018-07-24T10:49:01.563Z,4.00
2018-07-24T10:51:29.745Z,4.50
2018-07-24T10:53:57.848Z,4.50
2018-07-24T10:57:21.619Z,4.53
2018-07-24T10:59:50.491Z,4.30
2018-07-24T11:02:18.795Z,4.00
2018-07-24T11:04:46.888Z,3.90
2018-07-24T11:07:14.962Z,4.08
2018-07-24T11:09:43.272Z,3.90
2018-07-24T11:12:11.249Z,4.12
2018-07-24T11:14:39.644Z,3.90
2018-07-24T11:17:08.574Z,3.92
2018-07-24T11:19:37.064Z,3.60
2018-07-24T11:22:05.751Z,3.80
2018-07-24T11:24:34.067Z,4.20
2018-07-24T11:27:02.485Z,3.77
2018-07-24T11:29:30.867Z,3.77
2018-07-24T11:31:59.264Z,3.90
2018-07-24T11:34:27.581Z,3.70
2018-07-24T11:36:55.679Z,5.10
2018-07-24T11:39:23.868Z,3.70
2018-07-24T11:41:51.717Z,3.40
2018-07-24T11:44:19.725Z,3.67
2018-07-24T11:46:47.923Z,3.58
2018-07-24T11:49:16.209Z,3.40
2018-07-24T11:51:44.900Z,3.70
2018-07-24T11:54:13.350Z,3.75
2018-07-24T11:56:41.769Z,3.70
2018-07-24T11:59:09.944Z,3.52
2018-07-24T12:01:37.988Z,3.83
2018-07-24T12:04:06.554Z,3.20
2018-07-24T12:06:35.430Z,3.50
2018-07-24T12:09:05.786Z,3.60
2018-07-24T12:11:34.246Z,3.60
2018-07-24T12:14:02.671Z,3.70
2018-07-24T12:16:31.100Z,3.50
2018-07-24T12:18:59.471Z,3.60
2018-07-24T12:21:27.789Z,3.80
2018-07-24T12:23:55.847Z,3.77
2018-07-24T12:26:24.075Z,3.62
2018-07-24T12:28:52.540Z,3.35
2018-07-24T12:31:21.188Z,3.60
2018-07-24T12:33:49.349Z,3.20
2018-07-24T12:36:17.903Z,3.17
2018-07-24T12:38:46.396Z,3.60
2018-07-24T12:41:14.693Z,3.83
2018-07-24T12:43:43.395Z,3.50
2018-07-24T12:46:11.691Z,3.70
2018-07-24T12:48:40.076Z,3.50
2018-07-24T12:51:08.669Z,3.30
2018-07-24T12:53:36.764Z,3.60
2018-07-24T12:56:05.079Z,3.50
2018-07-24T12:58:34.076Z,3.52
2018-07-24T13:01:03.205Z,5.20
2018-07-24T13:03:31.689Z,3.87
2018-07-24T13:05:59.796Z,4.40
2018-07-24T13:08:28.133Z,4.30
2018-07-24T13:10:56.410Z,4.40
2018-07-24T13:13:24.880Z,3.80
2018-07-24T13:15:53.278Z,4.00
2018-07-24T13:18:21.722Z,4.10
2018-07-24T13:20:50.628Z,4.10
2018-07-24T13:23:19.492Z,3.90
2018-07-24T13:25:47.809Z,3.92
2018-07-24T13:28:16.006Z,3.70
2018-07-24T13:30:44.702Z,4.00
2018-07-24T13:33:13.223Z,3.50
2018-07-24T13:35:41.485Z,3.90
2018-07-24T13:38:09.693Z,3.95
2018-07-24T13:40:38.308Z,4.00
2018-07-24T13:43:06.796Z,4.10
2018-07-24T13:45:35.224Z,4.45
2018-07-24T13:48:04.018Z,4.65
2018-07-24T13:50:32.321Z,4.20
2018-07-24T13:53:00.502Z,4.30
2018-07-24T13:55:28.599Z,4.30
2018-07-24T13:57:56.889Z,4.50
2018-07-24T14:00:24.981Z,4.80
2018-07-24T14:02:53.423Z,4.40
2018-07-24T14:05:21.940Z,4.70
2018-07-24T14:07:50.158Z,4.70
2018-07-24T14:10:18.688Z,5.03
2018-07-24T14:12:47.080Z,4.80
2018-07-24T14:15:15.534Z,4.72
2018-07-24T14:17:44.295Z,5.07
2018-07-24T14:20:12.701Z,4.70
2018-07-24T14:22:40.909Z,5.20
2018-07-24T14:25:09.290Z,5.20
2018-07-24T14:27:38.337Z,5.40
2018-07-24T14:30:07.411Z,5.10
2018-07-24T14:32:35.839Z,5.28
2018-07-24T14:35:04.364Z,5.33
2018-07-24T14:37:32.725Z,5.10
2018-07-24T14:40:00.860Z,5.70
2018-07-24T14:42:29.063Z,5.20
2018-07-24T14:44:57.391Z,5.70
2018-07-24T14:47:25.721Z,5.28
2018-07-24T14:49:53.922Z,5.05
2018-07-24T14:52:22.387Z,4.83
2018-07-24T14:54:50.742Z,5.10
2018-07-24T14:57:19.294Z,5.70
2018-07-24T14:59:47.828Z,4.85
2018-07-24T15:02:16.247Z,5.10
2018-07-24T15:04:44.630Z,5.30
2018-07-24T15:07:13.024Z,5.00
2018-07-24T15:09:41.366Z,5.15
2018-07-24T15:12:09.901Z,4.40
2018-07-24T15:14:38.050Z,5.10
2018-07-24T15:17:08.435Z,5.30
2018-07-24T15:19:36.592Z,5.10
2018-07-24T15:22:05.380Z,5.10
2018-07-24T15:24:33.670Z,5.25
2018-07-24T15:27:02.176Z,5.00
2018-07-24T15:29:30.846Z,5.35
2018-07-24T15:31:59.259Z,5.05
2018-07-24T15:34:27.561Z,5.05
2018-07-24T15:36:55.971Z,4.80
2018-07-24T15:39:24.487Z,4.47
2018-07-24T15:41:52.961Z,4.85
2018-07-24T15:44:21.164Z,4.92
2018-07-24T15:46:49.379Z,5.05
2018-07-24T15:49:17.771Z,4.72
2018-07-24T15:51:45.953Z,4.70
2018-07-24T15:54:14.154Z,4.60
2018-07-24T15:56:42.466Z,4.90
2018-07-24T15:59:10.987Z,4.00
2018-07-24T16:01:39.670Z,4.37
2018-07-24T16:04:08.010Z,4.60
2018-07-24T16:06:36.438Z,4.80
2018-07-24T16:09:07.625Z,4.50
2018-07-24T16:11:36.316Z,4.35
2018-07-24T16:14:04.724Z,4.80
2018-07-24T16:16:33.478Z,4.97
2018-07-24T16:19:02.404Z,4.75
2018-07-24T16:21:30.786Z,4.25
2018-07-24T16:23:59.264Z,4.70
2018-07-24T16:26:27.816Z,4.53
2018-07-24T16:28:56.331Z,4.70
2018-07-24T16:31:24.833Z,4.87
2018-07-24T16:33:53.152Z,4.28
2018-07-24T16:36:21.504Z,4.50
2018-07-24T16:38:50.385Z,4.62
2018-07-24T16:41:19.059Z,4.40
2018-07-24T16:46:44.606Z,4.60
2018-07-24T16:49:13.414Z,4.67
2018-07-24T16:54:21.772Z,4.85
2018-07-24T16:56:50.314Z,4.70
2018-07-24T16:59:18.940Z,5.12
2018-07-24T17:01:47.482Z,4.80
2018-07-24T17:04:19.714Z,4.58
2018-07-24T17:06:48.268Z,4.60
2018-07-24T17:09:16.549Z,5.00
2018-07-24T17:11:45.081Z,4.30
2018-07-24T17:14:29.013Z,4.80
2018-07-24T17:16:57.697Z,4.90
2018-07-24T17:19:26.762Z,5.00
2018-07-24T17:21:55.152Z,4.80
2018-07-24T17:24:25.893Z,4.85
2018-07-24T17:26:54.823Z,4.70
2018-07-24T17:29:23.520Z,4.70
2018-07-24T17:31:53.981Z,4.60
2018-07-24T17:34:22.468Z,5.20
2018-07-24T17:36:51.059Z,4.53
2018-07-24T17:39:19.567Z,5.10
2018-07-24T17:41:47.913Z,5.25
2018-07-24T17:44:16.258Z,4.58
2018-07-24T17:46:44.625Z,4.92
2018-07-24T17:49:15.354Z,4.62
2018-07-24T17:51:44.020Z,4.50
2018-07-24T17:54:12.577Z,5.00
2018-07-24T17:56:40.955Z,4.90
2018-07-24T17:59:09.358Z,4.40
2018-07-24T18:01:38.773Z,5.60
2018-07-24T18:04:07.449Z,5.00
2018-07-24T18:06:35.943Z,5.12
2018-07-24T18:09:12.134Z,4.95
2018-07-24T18:11:40.663Z,5.10
2018-07-24T18:14:09.643Z,5.45
2018-07-24T18:16:41.427Z,5.10
2018-07-24T18:19:09.895Z,5.00
2018-07-24T18:21:38.517Z,4.80
2018-07-24T18:24:07.917Z,5.20
2018-07-24T18:26:39.624Z,4.93
2018-07-24T18:29:08.229Z,5.40
2018-07-24T18:31:36.796Z,5.00
2018-07-24T18:34:06.818Z,4.95
2018-07-24T18:36:35.650Z,5.50
2018-07-24T18:39:06.125Z,5.87
2018-07-24T18:41:35.092Z,5.77
2018-07-24T18:44:03.787Z,5.22
2018-07-24T18:46:31.851Z,5.60
2018-07-24T18:49:00.906Z,5.35
2018-07-24T18:51:29.492Z,5.20
2018-07-24T18:53:57.832Z,5.33
2018-07-24T18:56:27.805Z,5.40
2018-07-24T18:58:56.412Z,5.20
2018-07-24T19:01:24.653Z,5.42
2018-07-24T19:03:52.759Z,5.50
2018-07-24T19:06:23.790Z,5.17
2018-07-24T19:08:52.459Z,5.55
2018-07-24T19:11:21.658Z,5.60
2018-07-24T19:13:50.559Z,5.50
2018-07-24T19:16:19.254Z,5.30
2018-07-24T19:18:48.324Z,5.87
2018-07-24T19:21:17.078Z,5.97
2018-07-24T19:23:51.837Z,5.60
2018-07-24T19:26:20.527Z,6.03
2018-07-24T19:28:49.294Z,6.00
2018-07-24T19:31:17.908Z,6.00
2018-07-24T19:33:46.443Z,5.83
2018-07-24T19:36:14.827Z,5.87
2018-07-24T19:38:43.474Z,6.20
2018-07-24T19:41:19.414Z,6.15
2018-07-24T19:43:48.018Z,5.95
2018-07-24T19:46:16.320Z,5.90
2018-07-24T19:48:46.055Z,6.00
2018-07-24T19:51:14.727Z,5.45
2018-07-24T19:53:43.251Z,5.90
2018-07-24T19:56:11.583Z,5.80
2018-07-24T19:58:43.253Z,5.90
2018-07-24T20:01:11.525Z,5.90
2018-07-24T20:03:40.160Z,6.10
2018-07-24T20:06:13.129Z,5.83
2018-07-24T20:08:41.938Z,6.00
2018-07-24T20:11:10.759Z,5.20
2018-07-24T20:13:39.218Z,5.23
2018-07-24T20:16:09.151Z,5.80
2018-07-24T20:18:37.698Z,5.55
2018-07-24T20:21:06.393Z,5.40
2018-07-24T20:23:35.569Z,5.50
2018-07-24T20:26:05.416Z,5.17
2018-07-24T20:28:33.854Z,5.20
2018-07-24T20:31:02.479Z,5.53
2018-07-24T20:33:31.790Z,5.10
2018-07-24T20:36:00.698Z,5.30
2018-07-24T20:38:29.812Z,6.33
2018-07-24T20:40:59.084Z,5.40
2018-07-24T20:43:27.795Z,5.25
2018-07-24T20:45:55.951Z,5.42
2018-07-24T20:51:14.559Z,5.20
2018-07-24T20:53:45.114Z,5.60
2018-07-24T20:56:13.953Z,5.60
2018-07-24T20:58:46.048Z,5.70
2018-07-24T21:01:16.497Z,5.50
2018-07-24T21:03:45.287Z,6.25
2018-07-24T21:06:16.149Z,5.40
2018-07-24T21:08:53.609Z,5.70
2018-07-24T21:11:25.715Z,5.62
2018-07-24T21:13:57.709Z,5.45
2018-07-24T21:16:26.207Z,5.70
2018-07-24T21:18:54.949Z,5.20
2018-07-24T21:21:24.216Z,5.30
2018-07-24T21:24:06.220Z,5.20
2018-07-24T21:26:35.378Z,4.93
2018-07-24T21:29:04.687Z,5.00
2018-07-24T21:31:33.740Z,5.20
2018-07-24T21:34:02.819Z,5.55
2018-07-24T21:36:31.329Z,5.15
2018-07-24T21:38:59.831Z,5.30
2018-07-24T21:41:29.029Z,5.25
2018-07-24T21:43:57.976Z,5.20
2018-07-24T21:46:26.541Z,5.03
2018-07-24T21:48:55.150Z,5.20
2018-07-24T21:51:24.193Z,5.17
2018-07-24T21:54:03.705Z,5.57
2018-07-24T21:56:32.593Z,5.12
2018-07-24T21:59:00.997Z,5.03
2018-07-24T22:01:29.415Z,5.30
2018-07-24T22:03:57.707Z,5.83
2018-07-24T22:06:26.142Z,5.80
2018-07-24T22:08:58.574Z,5.33
2018-07-24T22:11:26.880Z,4.90
2018-07-24T22:13:55.192Z,4.80
2018-07-24T22:16:30.874Z,5.00
2018-07-24T22:18:59.136Z,5.10
2018-07-24T22:21:27.556Z,5.40
2018-07-24T22:23:56.056Z,5.30
2018-07-24T22:26:24.131Z,5.15
2018-07-24T22:28:52.565Z,5.20
2018-07-24T22:31:20.637Z,4.90
2018-07-24T22:33:48.747Z,5.10
2018-07-24T22:36:18.151Z,5.25
2018-07-24T22:38:46.769Z,5.65
2018-07-24T22:41:15.045Z,5.58
2018-07-24T22:43:43.133Z,5.47
2018-07-24T22:46:11.451Z,5.30
2018-07-24T22:48:39.727Z,5.90
2018-07-24T22:51:08.133Z,6.03
2018-07-24T22:53:36.521Z,7.30
2018-07-24T22:56:08.828Z,7.25
2018-07-24T22:58:37.210Z,7.20
2018-07-24T23:01:05.622Z,7.22
2018-07-24T23:03:33.930Z,7.10
2018-07-24T23:06:07.306Z,7.87
2018-07-24T23:08:35.719Z,7.42
2018-07-24T23:11:04.149Z,7.77
2018-07-24T23:13:32.647Z,7.30
2018-07-24T23:16:07.673Z,6.70
2018-07-24T23:18:35.987Z,7.10
2018-07-24T23:21:04.083Z,7.05
2018-07-24T23:23:32.461Z,6.80
2018-07-24T23:26:00.554Z,7.15
2018-07-24T23:28:28.827Z,7.17
2018-07-24T23:30:57.080Z,6.65
2018-07-24T23:33:25.968Z,6.70
2018-07-24T23:35:54.167Z,7.50
2018-07-24T23:38:22.138Z,7.10
2018-07-24T23:40:50.554Z,7.15
2018-07-24T23:43:18.934Z,7.47
2018-07-24T23:45:51.130Z,7.00
2018-07-24T23:48:19.530Z,6.92
2018-07-24T23:50:48.444Z,6.80
2018-07-24T23:53:16.938Z,6.87
2018-07-24T23:55:45.544Z,6.40
2018-07-24T23:58:14.001Z,6.55
